Terminal Aerodrome Forecast
Issued by NWS

Home | Current Version | Previous Version | Text Only | Print | Product List | Glossary On
Versions: 1 2 3 4 5 6 7 8 9 10 11 12 13 14 15 16 17 18 19 20 21 22 23 24 25 26 27 28
000
FTUS41 KOKX 011933 AAA
TAFSWF
TAF AMD
KSWF 011933Z 0120/0224 27013G21KT P6SM BKN035
     FM012300 28009KT P6SM BKN040
     FM020100 29005KT P6SM BKN050
     FM020500 VRB03KT P6SM SCT050 BKN250
     FM021600 28006KT P6SM SCT050 BKN250
      AMD NOT SKED=

USA.gov is the U.S. government's official web portal to all federal, state and local government web resources and services.